sensor_id;sensor_type;location;lat;lon;timestamp;temperature;humidity
1405;DHT22;697;51.114;6.542;2023-03-19T00:00:09;14.10;96.80
1405;DHT22;697;51.114;6.542;2023-03-19T00:02:36;14.00;97.00
1405;DHT22;697;51.114;6.542;2023-03-19T00:05:04;14.10;97.30
1405;DHT22;697;51.114;6.542;2023-03-19T00:07:31;14.00;97.40
1405;DHT22;697;51.114;6.542;2023-03-19T00:09:59;14.10;97.60
1405;DHT22;697;51.114;6.542;2023-03-19T00:12:25;14.10;97.80
1405;DHT22;697;51.114;6.542;2023-03-19T00:14:52;14.00;97.90
1405;DHT22;697;51.114;6.542;2023-03-19T00:17:19;13.90;98.30
1405;DHT22;697;51.114;6.542;2023-03-19T00:19:46;13.90;98.10
1405;DHT22;697;51.114;6.542;2023-03-19T00:22:13;13.80;98.40
1405;DHT22;697;51.114;6.542;2023-03-19T00:24:39;13.70;98.60
1405;DHT22;697;51.114;6.542;2023-03-19T00:27:07;13.70;98.80
1405;DHT22;697;51.114;6.542;2023-03-19T00:29:34;13.70;98.80
1405;DHT22;697;51.114;6.542;2023-03-19T00:32:02;13.80;99.20
1405;DHT22;697;51.114;6.542;2023-03-19T00:34:28;13.80;98.70
1405;DHT22;697;51.114;6.542;2023-03-19T00:36:55;13.80;98.60
1405;DHT22;697;51.114;6.542;2023-03-19T00:39:22;13.80;98.70
1405;DHT22;697;51.114;6.542;2023-03-19T00:41:49;13.80;98.60
1405;DHT22;697;51.114;6.542;2023-03-19T00:44:17;13.80;98.60
1405;DHT22;697;51.114;6.542;2023-03-19T00:46:44;13.70;98.40
1405;DHT22;697;51.114;6.542;2023-03-19T00:49:11;13.70;98.50
1405;DHT22;697;51.114;6.542;2023-03-19T00:51:38;13.70;98.60
1405;DHT22;697;51.114;6.542;2023-03-19T00:54:09;13.60;98.60
1405;DHT22;697;51.114;6.542;2023-03-19T00:56:36;13.60;98.70
1405;DHT22;697;51.114;6.542;2023-03-19T00:59:03;13.60;98.70
1405;DHT22;697;51.114;6.542;2023-03-19T01:01:32;13.60;98.80
1405;DHT22;697;51.114;6.542;2023-03-19T01:03:59;13.50;98.90
1405;DHT22;697;51.114;6.542;2023-03-19T01:06:25;13.50;98.90
1405;DHT22;697;51.114;6.542;2023-03-19T01:08:52;13.50;98.90
1405;DHT22;697;51.114;6.542;2023-03-19T01:11:20;13.60;98.90
1405;DHT22;697;51.114;6.542;2023-03-19T01:13:46;13.60;99.00
1405;DHT22;697;51.114;6.542;2023-03-19T01:16:13;13.60;99.00
1405;DHT22;697;51.114;6.542;2023-03-19T01:18:41;13.50;98.90
1405;DHT22;697;51.114;6.542;2023-03-19T01:21:08;13.50;99.00
1405;DHT22;697;51.114;6.542;2023-03-19T01:23:35;13.50;98.90
1405;DHT22;697;51.114;6.542;2023-03-19T01:26:01;13.50;98.70
1405;DHT22;697;51.114;6.542;2023-03-19T01:28:28;13.60;98.60
1405;DHT22;697;51.114;6.542;2023-03-19T01:30:58;13.60;98.50
1405;DHT22;697;51.114;6.542;2023-03-19T01:33:25;13.60;98.30
1405;DHT22;697;51.114;6.542;2023-03-19T01:35:53;13.60;98.20
1405;DHT22;697;51.114;6.542;2023-03-19T01:38:20;13.60;98.30
1405;DHT22;697;51.114;6.542;2023-03-19T01:40:47;13.60;98.20
1405;DHT22;697;51.114;6.542;2023-03-19T01:43:16;13.50;97.80
1405;DHT22;697;51.114;6.542;2023-03-19T01:45:44;13.50;97.70
1405;DHT22;697;51.114;6.542;2023-03-19T01:48:20;13.50;97.60
1405;DHT22;697;51.114;6.542;2023-03-19T01:50:49;13.40;97.70
1405;DHT22;697;51.114;6.542;2023-03-19T01:53:22;13.30;97.70
1405;DHT22;697;51.114;6.542;2023-03-19T01:55:50;13.30;97.80
1405;DHT22;697;51.114;6.542;2023-03-19T01:58:18;13.20;97.90
1405;DHT22;697;51.114;6.542;2023-03-19T02:00:45;13.20;97.70
1405;DHT22;697;51.114;6.542;2023-03-19T02:03:12;13.20;97.50
1405;DHT22;697;51.114;6.542;2023-03-19T02:05:40;13.20;97.50
1405;DHT22;697;51.114;6.542;2023-03-19T02:08:11;13.20;97.50
1405;DHT22;697;51.114;6.542;2023-03-19T02:10:42;13.20;97.40
1405;DHT22;697;51.114;6.542;2023-03-19T02:13:09;13.30;97.50
1405;DHT22;697;51.114;6.542;2023-03-19T02:15:36;13.30;97.40
1405;DHT22;697;51.114;6.542;2023-03-19T02:18:04;13.30;97.60
1405;DHT22;697;51.114;6.542;2023-03-19T02:20:34;13.40;98.00
1405;DHT22;697;51.114;6.542;2023-03-19T02:23:08;13.40;98.20
1405;DHT22;697;51.114;6.542;2023-03-19T02:25:40;13.40;98.40
1405;DHT22;697;51.114;6.542;2023-03-19T02:28:10;13.40;98.40
1405;DHT22;697;51.114;6.542;2023-03-19T02:30:38;13.40;98.30
1405;DHT22;697;51.114;6.542;2023-03-19T02:33:05;13.40;98.20
1405;DHT22;697;51.114;6.542;2023-03-19T02:35:33;13.50;98.20
1405;DHT22;697;51.114;6.542;2023-03-19T02:38:02;13.50;98.10
1405;DHT22;697;51.114;6.542;2023-03-19T02:40:33;13.50;97.90
1405;DHT22;697;51.114;6.542;2023-03-19T02:43:01;13.40;98.00
1405;DHT22;697;51.114;6.542;2023-03-19T02:45:30;13.40;98.00
1405;DHT22;697;51.114;6.542;2023-03-19T02:47:59;13.40;97.70
1405;DHT22;697;51.114;6.542;2023-03-19T02:50:26;13.40;97.50
1405;DHT22;697;51.114;6.542;2023-03-19T02:52:53;13.30;97.40
1405;DHT22;697;51.114;6.542;2023-03-19T02:55:20;13.30;97.50
1405;DHT22;697;51.114;6.542;2023-03-19T02:57:47;13.30;97.40
1405;DHT22;697;51.114;6.542;2023-03-19T03:00:14;13.20;97.30
1405;DHT22;697;51.114;6.542;2023-03-19T03:02:44;13.20;97.40
1405;DHT22;697;51.114;6.542;2023-03-19T03:05:11;13.20;97.60
1405;DHT22;697;51.114;6.542;2023-03-19T03:07:39;13.20;97.40
1405;DHT22;697;51.114;6.542;2023-03-19T03:10:08;13.20;97.30
1405;DHT22;697;51.114;6.542;2023-03-19T03:12:35;13.20;97.40
1405;DHT22;697;51.114;6.542;2023-03-19T03:15:03;13.10;97.30
1405;DHT22;697;51.114;6.542;2023-03-19T03:17:30;13.10;97.30
1405;DHT22;697;51.114;6.542;2023-03-19T03:19:58;13.10;97.50
1405;DHT22;697;51.114;6.542;2023-03-19T03:22:25;13.10;97.50
1405;DHT22;697;51.114;6.542;2023-03-19T03:24:52;13.00;97.60
1405;DHT22;697;51.114;6.542;2023-03-19T03:27:18;13.00;97.60
1405;DHT22;697;51.114;6.542;2023-03-19T03:29:45;13.00;97.50
1405;DHT22;697;51.114;6.542;2023-03-19T03:32:13;13.00;97.60
1405;DHT22;697;51.114;6.542;2023-03-19T03:34:40;13.00;97.60
1405;DHT22;697;51.114;6.542;2023-03-19T03:37:08;13.00;97.70
1405;DHT22;697;51.114;6.542;2023-03-19T03:39:35;13.00;97.60
1405;DHT22;697;51.114;6.542;2023-03-19T03:42:02;13.00;97.70
1405;DHT22;697;51.114;6.542;2023-03-19T03:44:29;13.00;97.80
1405;DHT22;697;51.114;6.542;2023-03-19T03:46:55;13.00;97.90
1405;DHT22;697;51.114;6.542;2023-03-19T03:49:22;13.10;98.00
1405;DHT22;697;51.114;6.542;2023-03-19T03:51:49;13.10;97.90
1405;DHT22;697;51.114;6.542;2023-03-19T03:54:17;13.10;98.00
1405;DHT22;697;51.114;6.542;2023-03-19T03:56:44;13.10;98.00
1405;DHT22;697;51.114;6.542;2023-03-19T03:59:10;13.10;98.10
1405;DHT22;697;51.114;6.542;2023-03-19T04:01:37;13.10;98.10
1405;DHT22;697;51.114;6.542;2023-03-19T04:04:04;13.10;98.20
1405;DHT22;697;51.114;6.542;2023-03-19T04:06:31;13.10;98.30
1405;DHT22;697;51.114;6.542;2023-03-19T04:08:57;13.00;98.50
1405;DHT22;697;51.114;6.542;2023-03-19T04:11:25;13.10;98.60
1405;DHT22;697;51.114;6.542;2023-03-19T04:13:53;13.10;98.60
1405;DHT22;697;51.114;6.542;2023-03-19T04:16:21;13.10;98.60
1405;DHT22;697;51.114;6.542;2023-03-19T04:18:47;13.10;98.70
1405;DHT22;697;51.114;6.542;2023-03-19T04:21:14;13.10;98.60
1405;DHT22;697;51.114;6.542;2023-03-19T04:23:41;13.10;98.70
1405;DHT22;697;51.114;6.542;2023-03-19T04:26:08;13.10;98.70
1405;DHT22;697;51.114;6.542;2023-03-19T04:28:38;13.10;98.70
1405;DHT22;697;51.114;6.542;2023-03-19T04:31:06;13.10;98.70
1405;DHT22;697;51.114;6.542;2023-03-19T04:33:33;13.10;98.70
1405;DHT22;697;51.114;6.542;2023-03-19T04:36:00;13.10;98.70
1405;DHT22;697;51.114;6.542;2023-03-19T04:38:27;13.10;98.80
1405;DHT22;697;51.114;6.542;2023-03-19T04:40:54;13.10;98.70
1405;DHT22;697;51.114;6.542;2023-03-19T04:43:21;13.10;98.70
1405;DHT22;697;51.114;6.542;2023-03-19T04:45:50;13.10;98.80
1405;DHT22;697;51.114;6.542;2023-03-19T04:48:17;13.10;98.80
1405;DHT22;697;51.114;6.542;2023-03-19T04:50:44;13.10;98.90
1405;DHT22;697;51.114;6.542;2023-03-19T04:53:11;13.10;98.80
1405;DHT22;697;51.114;6.542;2023-03-19T04:55:38;13.10;98.90
1405;DHT22;697;51.114;6.542;2023-03-19T04:58:05;13.10;98.90
1405;DHT22;697;51.114;6.542;2023-03-19T05:00:33;13.10;98.80
1405;DHT22;697;51.114;6.542;2023-03-19T05:03:01;13.10;98.80
1405;DHT22;697;51.114;6.542;2023-03-19T05:05:28;13.10;98.90
1405;DHT22;697;51.114;6.542;2023-03-19T05:07:55;13.00;98.90
1405;DHT22;697;51.114;6.542;2023-03-19T05:10:22;13.00;98.90
1405;DHT22;697;51.114;6.542;2023-03-19T05:12:49;13.00;99.00
1405;DHT22;697;51.114;6.542;2023-03-19T05:15:16;13.00;99.20
1405;DHT22;697;51.114;6.542;2023-03-19T05:17:43;13.00;99.30
1405;DHT22;697;51.114;6.542;2023-03-19T05:20:11;13.00;99.40
1405;DHT22;697;51.114;6.542;2023-03-19T05:22:38;13.00;99.60
1405;DHT22;697;51.114;6.542;2023-03-19T05:25:06;13.00;99.60
1405;DHT22;697;51.114;6.542;2023-03-19T05:27:33;13.00;99.60
1405;DHT22;697;51.114;6.542;2023-03-19T05:29:59;13.00;99.70
1405;DHT22;697;51.114;6.542;2023-03-19T05:32:26;13.00;99.70
1405;DHT22;697;51.114;6.542;2023-03-19T05:34:53;13.00;99.70
1405;DHT22;697;51.114;6.542;2023-03-19T05:37:21;13.00;99.70
1405;DHT22;697;51.114;6.542;2023-03-19T05:39:48;13.00;99.70
1405;DHT22;697;51.114;6.542;2023-03-19T05:42:15;13.00;99.70
1405;DHT22;697;51.114;6.542;2023-03-19T05:44:42;13.00;99.70
1405;DHT22;697;51.114;6.542;2023-03-19T05:47:09;13.00;99.90
1405;DHT22;697;51.114;6.542;2023-03-19T05:49:37;13.00;99.90
1405;DHT22;697;51.114;6.542;2023-03-19T05:52:04;13.00;99.90
1405;DHT22;697;51.114;6.542;2023-03-19T05:54:32;13.00;99.90
1405;DHT22;697;51.114;6.542;2023-03-19T05:56:59;13.10;99.90
1405;DHT22;697;51.114;6.542;2023-03-19T05:59:27;13.10;99.90
1405;DHT22;697;51.114;6.542;2023-03-19T06:01:53;13.10;99.90
1405;DHT22;697;51.114;6.542;2023-03-19T06:04:20;13.10;99.90
1405;DHT22;697;51.114;6.542;2023-03-19T06:06:47;13.10;99.90
1405;DHT22;697;51.114;6.542;2023-03-19T06:09:13;13.10;99.90
1405;DHT22;697;51.114;6.542;2023-03-19T06:11:41;13.10;99.90
1405;DHT22;697;51.114;6.542;2023-03-19T06:14:08;13.10;99.90
1405;DHT22;697;51.114;6.542;2023-03-19T06:16:35;13.10;99.90
1405;DHT22;697;51.114;6.542;2023-03-19T06:19:02;13.10;99.90
1405;DHT22;697;51.114;6.542;2023-03-19T06:21:28;13.10;99.90
1405;DHT22;697;51.114;6.542;2023-03-19T06:23:55;13.00;99.90
1405;DHT22;697;51.114;6.542;2023-03-19T06:26:23;13.10;99.90
1405;DHT22;697;51.114;6.542;2023-03-19T06:28:51;13.10;99.90
1405;DHT22;697;51.114;6.542;2023-03-19T06:31:18;13.10;99.90
1405;DHT22;697;51.114;6.542;2023-03-19T06:33:45;13.00;99.90
1405;DHT22;697;51.114;6.542;2023-03-19T06:36:13;13.00;99.90
1405;DHT22;697;51.114;6.542;2023-03-19T06:38:40;13.10;99.90
1405;DHT22;697;51.114;6.542;2023-03-19T06:41:07;13.00;99.90
1405;DHT22;697;51.114;6.542;2023-03-19T06:43:33;13.10;99.90
1405;DHT22;697;51.114;6.542;2023-03-19T06:46:03;13.10;99.90
1405;DHT22;697;51.114;6.542;2023-03-19T06:48:31;13.10;99.90
1405;DHT22;697;51.114;6.542;2023-03-19T06:50:58;13.10;99.90
1405;DHT22;697;51.114;6.542;2023-03-19T06:53:26;13.20;99.90
1405;DHT22;697;51.114;6.542;2023-03-19T06:55:53;13.20;99.90
1405;DHT22;697;51.114;6.542;2023-03-19T06:58:20;13.20;99.90
1405;DHT22;697;51.114;6.542;2023-03-19T07:00:47;13.30;99.90
1405;DHT22;697;51.114;6.542;2023-03-19T07:03:15;13.30;99.90
1405;DHT22;697;51.114;6.542;2023-03-19T07:05:41;13.30;99.90
1405;DHT22;697;51.114;6.542;2023-03-19T07:08:08;13.30;99.90
1405;DHT22;697;51.114;6.542;2023-03-19T07:10:36;13.20;99.90
1405;DHT22;697;51.114;6.542;2023-03-19T07:13:03;13.20;99.90
1405;DHT22;697;51.114;6.542;2023-03-19T07:15:30;13.20;99.90
1405;DHT22;697;51.114;6.542;2023-03-19T07:17:56;13.20;99.90
1405;DHT22;697;51.114;6.542;2023-03-19T07:20:24;13.20;99.90
1405;DHT22;697;51.114;6.542;2023-03-19T07:22:51;13.20;99.90
1405;DHT22;697;51.114;6.542;2023-03-19T07:25:19;13.20;99.90
1405;DHT22;697;51.114;6.542;2023-03-19T07:27:46;13.20;99.90
1405;DHT22;697;51.114;6.542;2023-03-19T07:30:13;13.20;99.90
1405;DHT22;697;51.114;6.542;2023-03-19T07:32:41;13.30;99.90
1405;DHT22;697;51.114;6.542;2023-03-19T07:35:08;13.30;99.90
1405;DHT22;697;51.114;6.542;2023-03-19T07:37:37;13.40;99.90
1405;DHT22;697;51.114;6.542;2023-03-19T07:40:04;13.50;99.90
1405;DHT22;697;51.114;6.542;2023-03-19T07:42:31;13.60;99.90
1405;DHT22;697;51.114;6.542;2023-03-19T07:44:58;13.70;99.90
1405;DHT22;697;51.114;6.542;2023-03-19T07:47:26;13.70;99.90
1405;DHT22;697;51.114;6.542;2023-03-19T07:49:53;13.80;99.90
1405;DHT22;697;51.114;6.542;2023-03-19T07:52:20;13.90;99.90
1405;DHT22;697;51.114;6.542;2023-03-19T07:54:48;14.10;99.90
1405;DHT22;697;51.114;6.542;2023-03-19T07:57:15;14.20;99.90
1405;DHT22;697;51.114;6.542;2023-03-19T07:59:42;14.40;99.90
1405;DHT22;697;51.114;6.542;2023-03-19T08:02:09;14.50;99.80
1405;DHT22;697;51.114;6.542;2023-03-19T08:04:36;14.60;99.50
1405;DHT22;697;51.114;6.542;2023-03-19T08:07:03;14.70;99.30
1405;DHT22;697;51.114;6.542;2023-03-19T08:09:31;14.80;99.10
1405;DHT22;697;51.114;6.542;2023-03-19T08:11:59;14.90;98.80
1405;DHT22;697;51.114;6.542;2023-03-19T08:14:26;15.00;98.70
1405;DHT22;697;51.114;6.542;2023-03-19T08:16:53;15.10;98.50
1405;DHT22;697;51.114;6.542;2023-03-19T08:19:20;15.30;98.10
1405;DHT22;697;51.114;6.542;2023-03-19T08:21:47;15.40;97.50
1405;DHT22;697;51.114;6.542;2023-03-19T08:24:14;15.50;97.40
1405;DHT22;697;51.114;6.542;2023-03-19T08:26:40;15.60;97.10
1405;DHT22;697;51.114;6.542;2023-03-19T08:29:08;15.80;96.50
1405;DHT22;697;51.114;6.542;2023-03-19T08:31:35;15.90;96.30
1405;DHT22;697;51.114;6.542;2023-03-19T08:34:02;16.00;95.40
1405;DHT22;697;51.114;6.542;2023-03-19T08:36:29;16.00;95.40
1405;DHT22;697;51.114;6.542;2023-03-19T08:38:56;16.00;95.30
1405;DHT22;697;51.114;6.542;2023-03-19T08:41:23;16.00;95.40
1405;DHT22;697;51.114;6.542;2023-03-19T08:43:50;15.90;95.00
1405;DHT22;697;51.114;6.542;2023-03-19T08:46:18;15.90;95.30
1405;DHT22;697;51.114;6.542;2023-03-19T08:48:45;15.80;95.90
1405;DHT22;697;51.114;6.542;2023-03-19T08:51:12;15.80;95.60
1405;DHT22;697;51.114;6.542;2023-03-19T08:53:38;15.90;95.60
1405;DHT22;697;51.114;6.542;2023-03-19T08:56:06;15.90;95.30
1405;DHT22;697;51.114;6.542;2023-03-19T08:58:33;16.00;95.00
1405;DHT22;697;51.114;6.542;2023-03-19T09:01:00;16.00;94.90
1405;DHT22;697;51.114;6.542;2023-03-19T09:03:30;16.00;94.90
1405;DHT22;697;51.114;6.542;2023-03-19T09:05:58;16.00;94.70
1405;DHT22;697;51.114;6.542;2023-03-19T09:08:26;16.00;95.20
1405;DHT22;697;51.114;6.542;2023-03-19T09:10:53;16.10;95.60
1405;DHT22;697;51.114;6.542;2023-03-19T09:13:20;16.20;95.30
1405;DHT22;697;51.114;6.542;2023-03-19T09:15:46;16.20;94.80
1405;DHT22;697;51.114;6.542;2023-03-19T09:18:14;16.30;94.20
1405;DHT22;697;51.114;6.542;2023-03-19T09:20:42;16.40;94.40
1405;DHT22;697;51.114;6.542;2023-03-19T09:23:09;16.50;94.00
1405;DHT22;697;51.114;6.542;2023-03-19T09:25:35;16.60;93.30
1405;DHT22;697;51.114;6.542;2023-03-19T09:28:02;16.70;93.20
1405;DHT22;697;51.114;6.542;2023-03-19T09:30:29;16.70;93.40
1405;DHT22;697;51.114;6.542;2023-03-19T09:32:56;16.80;93.30
1405;DHT22;697;51.114;6.542;2023-03-19T09:35:23;16.70;92.70
1405;DHT22;697;51.114;6.542;2023-03-19T09:37:56;16.70;92.90
1405;DHT22;697;51.114;6.542;2023-03-19T09:40:26;16.80;92.70
1405;DHT22;697;51.114;6.542;2023-03-19T09:43:01;16.80;92.00
1405;DHT22;697;51.114;6.542;2023-03-19T09:45:31;17.00;91.90
1405;DHT22;697;51.114;6.542;2023-03-19T09:48:02;17.10;91.50
1405;DHT22;697;51.114;6.542;2023-03-19T09:50:31;17.20;91.60
1405;DHT22;697;51.114;6.542;2023-03-19T09:53:06;17.30;91.40
1405;DHT22;697;51.114;6.542;2023-03-19T09:55:39;17.30;91.60
1405;DHT22;697;51.114;6.542;2023-03-19T09:58:12;17.30;91.40
1405;DHT22;697;51.114;6.542;2023-03-19T10:00:39;17.20;91.10
1405;DHT22;697;51.114;6.542;2023-03-19T10:03:19;17.20;91.00
1405;DHT22;697;51.114;6.542;2023-03-19T10:05:56;17.00;91.60
1405;DHT22;697;51.114;6.542;2023-03-19T10:08:40;16.90;91.40
1405;DHT22;697;51.114;6.542;2023-03-19T10:11:22;16.80;91.80
1405;DHT22;697;51.114;6.542;2023-03-19T10:13:58;16.70;91.90
1405;DHT22;697;51.114;6.542;2023-03-19T10:16:28;16.60;92.10
1405;DHT22;697;51.114;6.542;2023-03-19T10:18:58;16.50;92.00
1405;DHT22;697;51.114;6.542;2023-03-19T10:21:29;16.40;92.30
1405;DHT22;697;51.114;6.542;2023-03-19T10:24:02;16.30;92.80
1405;DHT22;697;51.114;6.542;2023-03-19T10:26:32;16.30;93.30
1405;DHT22;697;51.114;6.542;2023-03-19T10:29:03;16.30;92.40
1405;DHT22;697;51.114;6.542;2023-03-19T10:31:42;16.30;92.30
1405;DHT22;697;51.114;6.542;2023-03-19T10:34:25;16.30;92.30
1405;DHT22;697;51.114;6.542;2023-03-19T10:36:58;16.30;92.20
1405;DHT22;697;51.114;6.542;2023-03-19T10:39:27;16.40;93.00
1405;DHT22;697;51.114;6.542;2023-03-19T10:42:05;16.80;92.80
1405;DHT22;697;51.114;6.542;2023-03-19T10:44:36;17.50;91.50
1405;DHT22;697;51.114;6.542;2023-03-19T10:47:11;18.10;85.20
1405;DHT22;697;51.114;6.542;2023-03-19T10:49:39;18.30;85.30
1405;DHT22;697;51.114;6.542;2023-03-19T10:52:19;18.50;85.20
1405;DHT22;697;51.114;6.542;2023-03-19T10:54:53;18.50;83.00
1405;DHT22;697;51.114;6.542;2023-03-19T10:57:21;18.10;82.60
1405;DHT22;697;51.114;6.542;2023-03-19T10:59:48;17.50;83.80
1405;DHT22;697;51.114;6.542;2023-03-19T11:02:17;17.00;84.30
1405;DHT22;697;51.114;6.542;2023-03-19T11:04:45;16.60;87.30
1405;DHT22;697;51.114;6.542;2023-03-19T11:07:13;16.40;89.00
1405;DHT22;697;51.114;6.542;2023-03-19T11:09:42;16.20;90.70
1405;DHT22;697;51.114;6.542;2023-03-19T11:12:17;16.00;90.80
1405;DHT22;697;51.114;6.542;2023-03-19T11:14:46;15.90;91.40
1405;DHT22;697;51.114;6.542;2023-03-19T11:17:20;15.90;91.80
1405;DHT22;697;51.114;6.542;2023-03-19T11:19:50;16.00;92.30
1405;DHT22;697;51.114;6.542;2023-03-19T11:22:20;16.10;92.40
1405;DHT22;697;51.114;6.542;2023-03-19T11:24:51;16.10;91.60
1405;DHT22;697;51.114;6.542;2023-03-19T11:27:26;16.00;91.60
1405;DHT22;697;51.114;6.542;2023-03-19T11:29:54;16.00;91.70
1405;DHT22;697;51.114;6.542;2023-03-19T11:32:36;15.90;92.60
1405;DHT22;697;51.114;6.542;2023-03-19T11:35:09;15.80;92.40
1405;DHT22;697;51.114;6.542;2023-03-19T11:37:49;15.60;92.50
1405;DHT22;697;51.114;6.542;2023-03-19T11:40:20;15.40;92.70
1405;DHT22;697;51.114;6.542;2023-03-19T11:43:05;15.20;94.00
1405;DHT22;697;51.114;6.542;2023-03-19T11:45:44;15.10;94.20
1405;DHT22;697;51.114;6.542;2023-03-19T11:48:26;14.90;95.20
1405;DHT22;697;51.114;6.542;2023-03-19T11:50:58;14.90;95.90
1405;DHT22;697;51.114;6.542;2023-03-19T11:53:28;15.00;95.90
1405;DHT22;697;51.114;6.542;2023-03-19T11:56:04;15.00;95.10
1405;DHT22;697;51.114;6.542;2023-03-19T11:58:51;15.10;95.10
1405;DHT22;697;51.114;6.542;2023-03-19T12:01:32;15.30;94.60
1405;DHT22;697;51.114;6.542;2023-03-19T12:04:27;15.40;94.30
1405;DHT22;697;51.114;6.542;2023-03-19T12:06:59;15.60;93.90
1405;DHT22;697;51.114;6.542;2023-03-19T12:09:34;15.90;93.70
1405;DHT22;697;51.114;6.542;2023-03-19T12:12:09;16.10;93.30
1405;DHT22;697;51.114;6.542;2023-03-19T12:14:49;16.50;93.00
1405;DHT22;697;51.114;6.542;2023-03-19T12:17:24;17.10;91.80
1405;DHT22;697;51.114;6.542;2023-03-19T12:20:05;17.50;90.90
1405;DHT22;697;51.114;6.542;2023-03-19T12:22:45;17.90;89.60
1405;DHT22;697;51.114;6.542;2023-03-19T12:25:39;18.20;87.20
1405;DHT22;697;51.114;6.542;2023-03-19T12:28:12;18.40;84.10
1405;DHT22;697;51.114;6.542;2023-03-19T12:30:44;18.60;83.50
1405;DHT22;697;51.114;6.542;2023-03-19T12:33:24;19.00;81.60
1405;DHT22;697;51.114;6.542;2023-03-19T12:35:55;20.10;81.00
1405;DHT22;697;51.114;6.542;2023-03-19T12:38:25;21.60;69.20
1405;DHT22;697;51.114;6.542;2023-03-19T12:40:56;23.10;61.00
1405;DHT22;697;51.114;6.542;2023-03-19T12:43:26;23.40;56.10
1405;DHT22;697;51.114;6.542;2023-03-19T12:45:58;23.10;53.60
1405;DHT22;697;51.114;6.542;2023-03-19T12:48:28;22.40;56.30
1405;DHT22;697;51.114;6.542;2023-03-19T12:51:02;22.00;56.70
1405;DHT22;697;51.114;6.542;2023-03-19T12:53:41;21.80;58.10
1405;DHT22;697;51.114;6.542;2023-03-19T12:56:12;21.90;59.30
1405;DHT22;697;51.114;6.542;2023-03-19T12:58:50;22.10;59.30
1405;DHT22;697;51.114;6.542;2023-03-19T13:01:22;22.50;56.50
1405;DHT22;697;51.114;6.542;2023-03-19T13:03:54;22.50;56.30
1405;DHT22;697;51.114;6.542;2023-03-19T13:06:25;22.10;57.80
1405;DHT22;697;51.114;6.542;2023-03-19T13:08:57;21.40;59.50
1405;DHT22;697;51.114;6.542;2023-03-19T13:11:34;20.80;60.40
1405;DHT22;697;51.114;6.542;2023-03-19T13:14:07;20.20;64.10
1405;DHT22;697;51.114;6.542;2023-03-19T13:16:42;19.80;66.10
1405;DHT22;697;51.114;6.542;2023-03-19T13:19:17;19.20;68.20
1405;DHT22;697;51.114;6.542;2023-03-19T13:21:48;19.00;73.10
1405;DHT22;697;51.114;6.542;2023-03-19T13:24:21;18.90;76.40
1405;DHT22;697;51.114;6.542;2023-03-19T13:26:50;19.00;76.90
1405;DHT22;697;51.114;6.542;2023-03-19T13:29:19;20.00;73.30
1405;DHT22;697;51.114;6.542;2023-03-19T13:31:48;20.70;68.20
1405;DHT22;697;51.114;6.542;2023-03-19T13:34:24;21.10;65.40
1405;DHT22;697;51.114;6.542;2023-03-19T13:36:57;21.10;61.80
1405;DHT22;697;51.114;6.542;2023-03-19T13:39:28;21.00;62.60
1405;DHT22;697;51.114;6.542;2023-03-19T13:42:07;21.20;61.10
1405;DHT22;697;51.114;6.542;2023-03-19T13:44:38;20.70;60.70
1405;DHT22;697;51.114;6.542;2023-03-19T13:47:41;20.20;63.50
1405;DHT22;697;51.114;6.542;2023-03-19T13:50:28;20.00;65.60
1405;DHT22;697;51.114;6.542;2023-03-19T13:53:19;20.00;65.70
1405;DHT22;697;51.114;6.542;2023-03-19T13:55:52;20.40;65.80
1405;DHT22;697;51.114;6.542;2023-03-19T13:58:23;21.40;61.30
1405;DHT22;697;51.114;6.542;2023-03-19T14:01:35;23.30;58.60
1405;DHT22;697;51.114;6.542;2023-03-19T14:04:05;25.30;51.70
1405;DHT22;697;51.114;6.542;2023-03-19T14:06:39;25.40;47.40
1405;DHT22;697;51.114;6.542;2023-03-19T14:09:37;24.80;46.80
1405;DHT22;697;51.114;6.542;2023-03-19T14:12:29;23.90;49.40
1405;DHT22;697;51.114;6.542;2023-03-19T14:14:59;23.50;51.10
1405;DHT22;697;51.114;6.542;2023-03-19T14:17:30;23.70;51.40
1405;DHT22;697;51.114;6.542;2023-03-19T14:20:04;24.00;48.90
1405;DHT22;697;51.114;6.542;2023-03-19T14:22:35;23.50;48.70
1405;DHT22;697;51.114;6.542;2023-03-19T14:25:14;22.70;51.00
1405;DHT22;697;51.114;6.542;2023-03-19T14:27:45;21.80;50.80
1405;DHT22;697;51.114;6.542;2023-03-19T14:30:25;21.30;52.10
1405;DHT22;697;51.114;6.542;2023-03-19T14:32:54;20.70;52.90
1405;DHT22;697;51.114;6.542;2023-03-19T14:35:24;20.30;54.80
1405;DHT22;697;51.114;6.542;2023-03-19T14:37:52;19.90;56.30
1405;DHT22;697;51.114;6.542;2023-03-19T14:40:22;19.60;58.10
1405;DHT22;697;51.114;6.542;2023-03-19T14:42:56;19.40;59.00
1405;DHT22;697;51.114;6.542;2023-03-19T14:45:42;19.30;59.10
1405;DHT22;697;51.114;6.542;2023-03-19T14:48:19;19.20;60.10
1405;DHT22;697;51.114;6.542;2023-03-19T14:51:17;19.20;60.90
1405;DHT22;697;51.114;6.542;2023-03-19T14:53:48;19.30;62.80
1405;DHT22;697;51.114;6.542;2023-03-19T14:56:21;19.20;61.90
1405;DHT22;697;51.114;6.542;2023-03-19T14:58:51;19.10;62.20
1405;DHT22;697;51.114;6.542;2023-03-19T15:01:18;19.10;63.00
1405;DHT22;697;51.114;6.542;2023-03-19T15:03:53;19.00;64.00
1405;DHT22;697;51.114;6.542;2023-03-19T15:06:20;18.80;63.90
1405;DHT22;697;51.114;6.542;2023-03-19T15:08:48;18.70;63.60
1405;DHT22;697;51.114;6.542;2023-03-19T15:11:45;18.70;65.40
1405;DHT22;697;51.114;6.542;2023-03-19T15:14:32;18.50;66.50
1405;DHT22;697;51.114;6.542;2023-03-19T15:17:08;18.50;67.60
1405;DHT22;697;51.114;6.542;2023-03-19T15:19:39;18.40;67.80
1405;DHT22;697;51.114;6.542;2023-03-19T15:22:11;18.30;68.50
1405;DHT22;697;51.114;6.542;2023-03-19T15:24:39;18.30;69.90
1405;DHT22;697;51.114;6.542;2023-03-19T15:27:18;18.30;70.40
1405;DHT22;697;51.114;6.542;2023-03-19T15:29:45;18.20;69.10
1405;DHT22;697;51.114;6.542;2023-03-19T15:32:12;18.20;70.70
1405;DHT22;697;51.114;6.542;2023-03-19T15:34:38;18.20;71.40
1405;DHT22;697;51.114;6.542;2023-03-19T15:37:08;18.30;71.90
1405;DHT22;697;51.114;6.542;2023-03-19T15:39:41;18.30;72.10
1405;DHT22;697;51.114;6.542;2023-03-19T15:42:09;18.30;70.60
1405;DHT22;697;51.114;6.542;2023-03-19T15:44:41;18.30;69.20
1405;DHT22;697;51.114;6.542;2023-03-19T15:47:12;18.20;68.60
1405;DHT22;697;51.114;6.542;2023-03-19T15:49:42;18.10;69.90
1405;DHT22;697;51.114;6.542;2023-03-19T15:52:11;18.00;70.90
1405;DHT22;697;51.114;6.542;2023-03-19T15:54:40;17.90;71.10
1405;DHT22;697;51.114;6.542;2023-03-19T15:57:10;17.80;69.50
1405;DHT22;697;51.114;6.542;2023-03-19T15:59:40;17.70;71.60
1405;DHT22;697;51.114;6.542;2023-03-19T16:02:15;17.60;73.10
1405;DHT22;697;51.114;6.542;2023-03-19T16:04:44;17.50;74.30
1405;DHT22;697;51.114;6.542;2023-03-19T16:07:22;17.30;75.40
1405;DHT22;697;51.114;6.542;2023-03-19T16:09:50;17.20;76.00
1405;DHT22;697;51.114;6.542;2023-03-19T16:12:39;17.10;75.70
1405;DHT22;697;51.114;6.542;2023-03-19T16:15:24;17.10;75.20
1405;DHT22;697;51.114;6.542;2023-03-19T16:17:53;17.10;75.30
1405;DHT22;697;51.114;6.542;2023-03-19T16:20:20;17.10;74.90
1405;DHT22;697;51.114;6.542;2023-03-19T16:22:52;17.20;75.90
1405;DHT22;697;51.114;6.542;2023-03-19T16:25:21;17.20;75.40
1405;DHT22;697;51.114;6.542;2023-03-19T16:27:51;17.20;75.60
1405;DHT22;697;51.114;6.542;2023-03-19T16:30:20;17.10;76.10
1405;DHT22;697;51.114;6.542;2023-03-19T16:32:57;17.10;76.90
1405;DHT22;697;51.114;6.542;2023-03-19T16:35:26;16.90;77.30